Time;durP1;ratioP1;P1;durP2;ratioP2;P2;SDS_P1;SDS_P2;PMS_P1;PMS_P2;Temp;Humidity;BMP_temperature;BMP_pressure;BME280_temperature;BME280_humidity;BME280_pressure;Samples;Min_cycle;Max_cycle;Signal;HPM_P1;HPM_P2
2023/05/02 00:00:41;;;;;;;13.18;6.90;;;12.30;99.90;;;;;;5003324;28;20117;-93
2023/05/02 00:03:07;;;;;;;16.48;6.05;;;12.30;99.90;;;;;;5014507;28;20034;-91
2023/05/02 00:05:33;;;;;;;15.32;6.78;;;12.30;99.90;;;;;;5013572;28;20092;-91
2023/05/02 00:07:59;;;;;;;13.05;5.80;;;12.30;99.90;;;;;;5027514;28;20046;-89
2023/05/02 00:10:25;;;;;;;10.15;5.18;;;12.30;99.90;;;;;;5022779;28;20056;-88
2023/05/02 00:12:51;;;;;;;11.93;5.25;;;12.30;99.90;;;;;;5023974;28;20024;-90
2023/05/02 00:15:17;;;;;;;9.43;4.57;;;12.30;99.90;;;;;;5029186;28;20041;-91
2023/05/02 00:17:42;;;;;;;10.88;4.43;;;12.30;99.90;;;;;;5014267;28;20064;-90
2023/05/02 00:20:10;;;;;;;9.13;3.50;;;12.20;99.90;;;;;;5020479;28;20064;-90
2023/05/02 00:22:37;;;;;;;7.18;3.75;;;12.20;99.90;;;;;;5008286;28;20049;-91
2023/05/02 00:25:03;;;;;;;9.80;3.40;;;12.10;99.90;;;;;;5011640;28;20049;-91
2023/05/02 00:27:30;;;;;;;9.18;3.50;;;12.10;99.90;;;;;;5031075;28;20049;-91
2023/05/02 00:29:58;;;;;;;8.15;3.25;;;12.10;99.90;;;;;;5007202;28;20141;-88
2023/05/02 00:32:24;;;;;;;9.75;3.25;;;12.00;99.90;;;;;;4997078;28;20065;-90
2023/05/02 00:34:50;;;;;;;7.47;3.08;;;12.00;99.90;;;;;;5031590;28;20048;-90
2023/05/02 00:37:15;;;;;;;10.38;3.47;;;12.00;99.90;;;;;;5018061;28;20511;-90
2023/05/02 00:39:41;;;;;;;7.18;2.65;;;11.90;99.90;;;;;;5021248;28;20427;-90
2023/05/02 00:42:07;;;;;;;8.52;3.00;;;11.90;99.90;;;;;;5024763;28;20043;-89
2023/05/02 00:44:33;;;;;;;7.97;2.90;;;11.90;99.90;;;;;;4997220;28;20266;-87
2023/05/02 00:47:00;;;;;;;7.13;3.00;;;11.90;99.90;;;;;;5021936;28;20518;-87
2023/05/02 00:49:27;;;;;;;7.40;2.95;;;11.90;99.90;;;;;;4990830;28;20037;-88
2023/05/02 00:51:53;;;;;;;5.85;3.10;;;11.90;99.90;;;;;;5013023;28;20052;-88
2023/05/02 00:54:19;;;;;;;8.98;3.00;;;11.90;99.90;;;;;;5010693;28;20065;-88
2023/05/02 00:56:46;;;;;;;6.72;2.58;;;12.20;99.90;;;;;;5027521;28;20033;-88
2023/05/02 00:59:12;;;;;;;6.95;2.88;;;11.90;99.90;;;;;;5023543;28;20117;-88
2023/05/02 01:02:10;;;;;;;8.48;3.10;;;11.90;99.90;;;;;;5007935;28;20403;-89
2023/05/02 01:04:58;;;;;;;10.50;3.17;;;11.90;99.90;;;;;;5000262;28;20343;-89
2023/05/02 01:07:47;;;;;;;7.25;2.88;;;11.90;99.90;;;;;;5018999;28;20042;-89
2023/05/02 01:10:44;;;;;;;6.68;2.63;;;11.90;99.90;;;;;;5003097;28;20436;-88
2023/05/02 01:13:16;;;;;;;9.52;3.20;;;11.80;99.90;;;;;;5012695;28;20120;-88
2023/05/02 01:15:44;;;;;;;6.18;2.50;;;11.80;99.90;;;;;;5023780;28;20029;-88
2023/05/02 01:18:12;;;;;;;7.38;2.80;;;11.80;99.90;;;;;;5016403;28;20029;-88
2023/05/02 01:20:42;;;;;;;6.55;2.33;;;11.80;99.90;;;;;;5000215;28;20065;-88
2023/05/02 01:23:22;;;;;;;5.55;2.42;;;11.70;99.90;;;;;;4988813;28;20129;-88
2023/05/02 01:26:32;;;;;;;6.13;2.75;;;11.80;99.90;;;;;;5016413;28;20162;-88
2023/05/02 01:29:05;;;;;;;6.85;2.60;;;11.70;99.90;;;;;;4970454;28;20074;-88
2023/05/02 01:31:38;;;;;;;7.53;2.70;;;11.70;99.90;;;;;;4967775;28;20054;-88
2023/05/02 01:34:08;;;;;;;7.10;2.92;;;11.70;99.90;;;;;;4971806;28;20417;-88
2023/05/02 01:36:37;;;;;;;5.85;2.42;;;11.60;99.90;;;;;;4968924;28;20089;-88
2023/05/02 01:39:06;;;;;;;8.63;3.42;;;11.60;99.90;;;;;;4962436;28;20122;-88
2023/05/02 01:41:33;;;;;;;8.07;2.78;;;11.60;99.90;;;;;;4949357;28;20046;-88
2023/05/02 01:44:02;;;;;;;9.20;2.80;;;11.60;99.90;;;;;;4951077;28;20042;-88
2023/05/02 01:46:32;;;;;;;7.47;2.22;;;11.60;99.90;;;;;;4966705;28;20074;-88
2023/05/02 01:49:02;;;;;;;4.95;2.50;;;11.60;99.90;;;;;;4966159;28;20042;-89
2023/05/02 01:51:31;;;;;;;7.90;3.10;;;11.60;99.90;;;;;;4950916;28;20513;-88
2023/05/02 01:54:06;;;;;;;9.52;2.83;;;11.60;99.90;;;;;;4940003;28;20104;-88
2023/05/02 01:56:35;;;;;;;9.73;2.70;;;11.60;99.90;;;;;;4967862;28;20425;-87
2023/05/02 01:59:07;;;;;;;12.95;3.75;;;11.50;99.90;;;;;;4957458;28;20056;-88
2023/05/02 02:01:36;;;;;;;8.55;2.78;;;11.60;99.90;;;;;;5014233;28;20508;-88
2023/05/02 02:04:04;;;;;;;14.18;2.97;;;11.50;99.90;;;;;;5023069;28;20444;-88
2023/05/02 02:06:30;;;;;;;8.68;3.10;;;11.40;99.90;;;;;;5007869;28;20061;-88
2023/05/02 02:08:56;;;;;;;11.45;3.15;;;11.30;99.90;;;;;;5014482;28;20042;-87
2023/05/02 02:11:33;;;;;;;12.50;3.03;;;11.30;99.90;;;;;;4998422;28;20045;-88
2023/05/02 02:14:11;;;;;;;11.77;3.58;;;11.20;99.90;;;;;;5015453;28;20038;-88
2023/05/02 02:16:40;;;;;;;20.95;4.50;;;11.10;99.90;;;;;;4994106;28;20045;-87
2023/05/02 02:19:09;;;;;;;11.55;3.08;;;11.00;99.90;;;;;;4995727;28;20053;-88
2023/05/02 02:21:37;;;;;;;10.88;3.00;;;11.00;99.90;;;;;;5020408;28;20066;-88
2023/05/02 02:24:05;;;;;;;12.38;3.60;;;11.00;99.90;;;;;;4994753;28;20050;-89
2023/05/02 02:26:31;;;;;;;11.38;2.83;;;10.90;99.90;;;;;;5002444;28;20072;-88
2023/05/02 02:28:59;;;;;;;15.40;3.95;;;10.90;99.90;;;;;;4999890;28;20604;-87
2023/05/02 02:31:33;;;;;;;18.23;3.55;;;10.90;99.90;;;;;;5020644;28;20397;-87
2023/05/02 02:33:59;;;;;;;14.30;3.97;;;10.80;99.90;;;;;;5018438;28;20400;-88
2023/05/02 02:36:45;;;;;;;17.60;4.18;;;10.80;99.90;;;;;;5003928;28;20395;-86
2023/05/02 02:39:41;;;;;;;16.52;3.20;;;10.80;99.90;;;;;;4989651;28;20396;-87
2023/05/02 02:42:24;;;;;;;10.98;3.22;;;10.20;99.90;;;;;;4999649;28;20372;-88
2023/05/02 02:44:49;;;;;;;11.77;3.25;;;10.80;99.90;;;;;;4997235;28;20034;-88
2023/05/02 02:47:44;;;;;;;17.80;5.07;;;10.80;99.90;;;;;;5003422;28;20164;-88
2023/05/02 02:50:15;;;;;;;;;;;10.80;99.90;;;;;;4988219;28;20064;-88
2023/05/02 02:53:01;;;;;;;17.58;3.58;;;10.70;99.90;;;;;;5026638;28;19921;-88
2023/05/02 02:55:44;;;;;;;15.43;3.95;;;10.90;99.90;;;;;;5027601;28;20048;-87
2023/05/02 02:58:30;;;;;;;12.73;3.13;;;10.70;99.90;;;;;;4978965;28;20041;-88
2023/05/02 03:00:58;;;;;;;14.10;3.35;;;10.70;99.90;;;;;;4985770;28;20061;-87
2023/05/02 03:03:27;;;;;;;17.05;3.72;;;10.70;99.90;;;;;;4990691;28;20424;-89
2023/05/02 03:05:56;;;;;;;17.00;3.20;;;10.60;99.90;;;;;;5023623;28;20038;-88
2023/05/02 03:08:21;;;;;;;15.15;4.20;;;10.60;99.90;;;;;;5005926;28;20041;-88
2023/05/02 03:10:47;;;;;;;12.93;3.65;;;10.60;99.90;;;;;;5015627;28;20030;-87
2023/05/02 03:13:13;;;;;;;16.80;3.80;;;10.60;99.90;;;;;;5004897;28;20044;-89
2023/05/02 03:16:26;;;;;;;17.35;3.50;;;10.60;99.90;;;;;;4998900;28;20108;-88
2023/05/02 03:18:51;;;;;;;17.52;3.65;;;10.60;99.90;;;;;;4979430;28;20050;-88
2023/05/02 03:21:17;;;;;;;19.80;4.18;;;10.50;99.90;;;;;;5016477;28;20080;-88
2023/05/02 03:23:43;;;;;;;15.05;3.70;;;10.50;99.90;;;;;;4995547;28;20042;-87
2023/05/02 03:26:09;;;;;;;15.18;3.65;;;10.50;99.90;;;;;;5018470;28;20037;-87
2023/05/02 03:28:34;;;;;;;15.30;3.67;;;10.50;99.90;;;;;;5018958;28;20058;-89
2023/05/02 03:31:00;;;;;;;15.75;3.63;;;10.40;99.90;;;;;;5014365;28;20096;-87
2023/05/02 03:33:26;;;;;;;20.08;3.78;;;10.40;99.90;;;;;;5021078;28;20111;-87
2023/05/02 03:35:52;;;;;;;12.88;3.10;;;10.30;99.90;;;;;;5013727;28;20041;-88
2023/05/02 03:38:18;;;;;;;12.48;3.42;;;10.40;99.90;;;;;;5013773;28;20053;-87
2023/05/02 03:40:44;;;;;;;11.32;3.08;;;10.30;99.90;;;;;;4997126;28;20346;-87
2023/05/02 03:43:10;;;;;;;13.68;3.03;;;10.30;99.90;;;;;;5002452;28;20041;-87
2023/05/02 03:45:36;;;;;;;14.57;3.13;;;10.30;99.90;;;;;;5004269;28;20535;-87
2023/05/02 03:48:05;;;;;;;13.85;3.38;;;10.20;99.90;;;;;;5020040;28;20049;-87
2023/05/02 03:50:31;;;;;;;13.15;3.42;;;10.20;99.90;;;;;;4989244;28;20045;-87
2023/05/02 03:52:56;;;;;;;11.85;2.58;;;10.20;99.90;;;;;;5016061;28;20042;-87
2023/05/02 03:55:22;;;;;;;16.45;3.22;;;10.20;99.90;;;;;;5018077;28;20061;-88
2023/05/02 03:57:48;;;;;;;11.32;2.85;;;10.10;99.90;;;;;;5025882;28;20476;-87
2023/05/02 04:00:14;;;;;;;9.63;2.15;;;10.10;99.90;;;;;;5021328;28;20099;-88
2023/05/02 04:02:40;;;;;;;10.07;2.30;;;10.00;99.90;;;;;;5007283;28;20046;-88
2023/05/02 04:05:07;;;;;;;11.05;2.35;;;10.00;99.90;;;;;;4990892;28;20444;-88
2023/05/02 04:07:33;;;;;;;9.82;2.10;;;10.00;99.90;;;;;;5008932;28;20041;-88
2023/05/02 04:09:59;;;;;;;9.98;1.95;;;10.00;99.90;;;;;;5005123;28;20496;-86
2023/05/02 04:12:28;;;;;;;8.82;2.38;;;10.00;99.90;;;;;;5010056;28;20069;-87
2023/05/02 04:14:54;;;;;;;10.38;2.50;;;10.00;99.90;;;;;;5019338;28;20042;-88
2023/05/02 04:17:20;;;;;;;9.40;2.22;;;9.90;99.90;;;;;;5002583;28;20734;-87
2023/05/02 04:19:46;;;;;;;9.13;2.70;;;9.90;99.90;;;;;;5005326;28;20061;-88
2023/05/02 04:22:12;;;;;;;14.43;2.67;;;9.90;99.90;;;;;;5008229;28;20038;-87
2023/05/02 04:24:37;;;;;;;12.63;2.83;;;10.00;99.90;;;;;;5025012;28;20038;-88
2023/05/02 04:27:03;;;;;;;9.10;1.85;;;9.90;99.90;;;;;;5007088;28;20037;-88
2023/05/02 04:29:29;;;;;;;8.15;2.10;;;9.90;99.90;;;;;;5006503;28;20476;-87
2023/05/02 04:31:54;;;;;;;9.23;2.03;;;9.90;99.90;;;;;;5021358;28;20547;-88
2023/05/02 04:34:20;;;;;;;9.77;2.20;;;9.80;99.90;;;;;;5002519;28;20045;-88
2023/05/02 04:36:46;;;;;;;9.40;1.90;;;9.80;99.90;;;;;;4986631;28;20049;-87
2023/05/02 04:39:12;;;;;;;10.18;2.28;;;9.90;99.90;;;;;;5006396;28;20038;-87
2023/05/02 04:41:38;;;;;;;5.22;1.70;;;9.80;99.90;;;;;;5003966;28;20038;-87
2023/05/02 04:44:03;;;;;;;7.15;1.70;;;9.80;99.90;;;;;;4983428;28;20128;-87
2023/05/02 04:46:29;;;;;;;7.80;1.60;;;9.80;99.90;;;;;;5008776;28;20030;-86
2023/05/02 04:48:55;;;;;;;8.43;1.58;;;9.80;99.90;;;;;;5022791;28;20113;-87
2023/05/02 04:51:21;;;;;;;10.85;2.22;;;9.80;99.90;;;;;;5022740;28;20403;-87
2023/05/02 04:53:46;;;;;;;5.53;1.60;;;9.80;99.90;;;;;;5005524;28;20522;-88
2023/05/02 04:56:12;;;;;;;7.63;1.52;;;9.80;99.90;;;;;;5014951;28;20033;-88
2023/05/02 04:58:38;;;;;;;8.65;2.90;;;9.70;99.90;;;;;;5018965;28;20092;-87
2023/05/02 05:01:04;;;;;;;6.35;1.80;;;9.70;99.90;;;;;;4981735;28;20420;-88
2023/05/02 05:03:30;;;;;;;6.70;1.75;;;9.70;99.90;;;;;;5019417;28;20041;-86
2023/05/02 05:05:56;;;;;;;6.90;1.35;;;9.70;99.90;;;;;;5011765;28;20400;-86
2023/05/02 05:08:22;;;;;;;8.25;1.52;;;9.70;99.90;;;;;;5004604;28;20084;-87
2023/05/02 05:10:47;;;;;;;6.82;1.75;;;9.70;99.90;;;;;;5013157;28;20037;-86
2023/05/02 05:13:13;;;;;;;7.60;2.30;;;9.70;99.90;;;;;;5015136;28;20473;-84
2023/05/02 05:15:39;;;;;;;7.05;1.75;;;9.60;99.90;;;;;;5023603;28;20120;-87
2023/05/02 05:18:05;;;;;;;5.32;1.45;;;9.60;99.90;;;;;;5023364;28;20115;-87
2023/05/02 05:20:32;;;;;;;7.60;1.65;;;9.60;99.90;;;;;;5001570;28;20185;-90
2023/05/02 05:22:58;;;;;;;8.63;1.48;;;9.60;99.90;;;;;;5013693;28;20437;-86
2023/05/02 05:25:27;;;;;;;10.57;2.03;;;9.90;99.90;;;;;;5010270;28;20072;-89
2023/05/02 05:27:54;;;;;;;8.30;2.22;;;9.60;99.90;;;;;;5011558;28;20041;-88
2023/05/02 05:30:20;;;;;;;10.13;1.92;;;9.60;99.90;;;;;;4999025;28;20084;-87
2023/05/02 05:32:46;;;;;;;8.77;2.05;;;9.60;99.90;;;;;;5017161;28;20061;-86
2023/05/02 05:35:12;;;;;;;10.60;2.20;;;9.60;99.90;;;;;;5015936;28;20052;-85
2023/05/02 05:37:38;;;;;;;9.23;2.97;;;10.00;99.90;;;;;;4998494;28;20051;-86
2023/05/02 05:40:08;;;;;;;7.82;2.13;;;9.60;99.90;;;;;;4981042;28;20038;-86
2023/05/02 05:42:34;;;;;;;15.32;2.63;;;9.60;99.90;;;;;;5012922;28;20037;-86
2023/05/02 05:45:00;;;;;;;10.13;2.38;;;9.60;99.90;;;;;;4982423;28;20468;-87
2023/05/02 05:47:25;;;;;;;7.68;2.00;;;9.60;99.90;;;;;;5003607;28;20030;-87
2023/05/02 05:49:55;;;;;;;11.50;2.30;;;9.60;99.90;;;;;;5025038;28;20412;-87
2023/05/02 05:52:20;;;;;;;9.07;2.75;;;9.60;99.90;;;;;;5011677;28;20045;-87
2023/05/02 05:54:46;;;;;;;9.55;2.67;;;9.60;99.90;;;;;;5004131;28;20531;-86
2023/05/02 05:57:12;;;;;;;10.68;1.77;;;9.60;99.90;;;;;;5012284;28;20451;-89
2023/05/02 05:59:38;;;;;;;8.38;2.47;;;9.50;99.90;;;;;;4994045;28;20125;-87
2023/05/02 06:02:04;;;;;;;12.65;3.25;;;9.50;99.90;;;;;;5012528;28;20038;-85
2023/05/02 06:04:30;;;;;;;8.23;2.42;;;9.50;99.90;;;;;;4991111;28;20052;-87
2023/05/02 06:06:56;;;;;;;13.60;3.10;;;9.50;99.90;;;;;;4979927;28;20462;-89
2023/05/02 06:09:22;;;;;;;9.90;2.47;;;9.50;99.90;;;;;;5020390;28;20133;-90
2023/05/02 06:11:47;;;;;;;11.10;2.97;;;9.50;99.90;;;;;;5007483;28;20080;-85
2023/05/02 06:14:13;;;;;;;10.05;2.63;;;9.50;99.90;;;;;;4997222;28;20041;-84
2023/05/02 06:16:39;;;;;;;8.65;3.15;;;9.60;99.90;;;;;;4986377;28;20033;-83
2023/05/02 06:19:04;;;;;;;9.43;2.75;;;9.60;99.90;;;;;;4993232;28;20096;-83
2023/05/02 06:21:30;;;;;;;9.02;2.50;;;9.60;99.90;;;;;;5012030;28;20488;-83
2023/05/02 06:23:56;;;;;;;11.95;2.95;;;9.60;99.90;;;;;;4978912;28;20050;-83
2023/05/02 06:26:21;;;;;;;7.47;2.53;;;9.60;99.90;;;;;;5016034;28;20045;-84
2023/05/02 06:28:47;;;;;;;11.20;2.45;;;9.60;99.90;;;;;;4994578;28;20034;-83
2023/05/02 06:31:13;;;;;;;15.18;2.90;;;9.60;99.90;;;;;;5016109;28;20040;-83
2023/05/02 06:33:40;;;;;;;10.82;2.67;;;9.60;99.90;;;;;;5000125;28;20045;-83
2023/05/02 06:36:05;;;;;;;10.90;2.72;;;9.60;99.90;;;;;;4993893;28;20069;-82
2023/05/02 06:38:31;;;;;;;9.52;2.67;;;9.70;99.90;;;;;;4998227;28;20131;-83
2023/05/02 06:40:57;;;;;;;10.68;2.55;;;9.60;99.90;;;;;;4997589;28;20037;-84
2023/05/02 06:43:22;;;;;;;9.18;2.17;;;9.70;99.90;;;;;;4993281;28;20058;-83
2023/05/02 06:45:53;;;;;;;9.90;2.65;;;9.70;99.90;;;;;;5009931;28;20046;-83
2023/05/02 06:48:19;;;;;;;8.10;2.67;;;9.70;99.90;;;;;;5015861;28;20034;-83
2023/05/02 06:50:45;;;;;;;7.68;2.33;;;9.80;99.90;;;;;;5018443;28;20046;-82
2023/05/02 06:53:11;;;;;;;8.88;2.35;;;9.70;99.90;;;;;;4982719;28;20129;-83
2023/05/02 06:55:36;;;;;;;9.50;3.08;;;9.70;99.90;;;;;;5011787;28;20042;-83
2023/05/02 06:58:02;;;;;;;9.00;2.20;;;9.70;99.90;;;;;;4993709;28;20042;-82
2023/05/02 07:00:28;;;;;;;10.20;2.70;;;9.70;99.90;;;;;;4990985;28;20055;-82
2023/05/02 07:02:53;;;;;;;12.52;2.45;;;9.70;99.90;;;;;;5011497;28;20116;-83
2023/05/02 07:05:19;;;;;;;16.77;2.88;;;9.70;99.90;;;;;;4993370;28;20125;-83
2023/05/02 07:07:45;;;;;;;9.23;2.00;;;9.80;99.90;;;;;;5011340;28;20041;-83
2023/05/02 07:10:11;;;;;;;7.60;2.40;;;9.80;99.90;;;;;;4994628;28;20049;-85
2023/05/02 07:12:38;;;;;;;9.90;2.67;;;9.80;99.90;;;;;;4997113;28;20069;-85
2023/05/02 07:15:07;;;;;;;12.38;3.17;;;9.90;99.90;;;;;;5001051;28;20104;-83
2023/05/02 07:17:33;;;;;;;8.35;2.35;;;9.90;99.90;;;;;;5005816;28;20169;-84
2023/05/02 07:19:58;;;;;;;8.85;2.42;;;9.90;99.90;;;;;;5005148;28;20047;-84
2023/05/02 07:22:25;;;;;;;7.72;2.28;;;9.90;99.90;;;;;;4998551;28;20447;-84
2023/05/02 07:24:58;;;;;;;9.80;2.35;;;10.00;99.90;;;;;;5016308;28;20045;-84
2023/05/02 07:27:24;;;;;;;8.05;3.10;;;10.00;99.90;;;;;;4982648;28;20057;-84
2023/05/02 07:29:50;;;;;;;10.25;2.97;;;10.00;99.90;;;;;;4999652;28;20038;-85
2023/05/02 07:32:16;;;;;;;11.98;2.42;;;10.10;99.90;;;;;;4999974;28;20088;-84
2023/05/02 07:34:42;;;;;;;6.57;2.17;;;10.10;99.90;;;;;;5015861;28;20066;-85
2023/05/02 07:37:08;;;;;;;8.60;1.80;;;10.10;99.90;;;;;;5004056;28;20107;-84
2023/05/02 07:39:34;;;;;;;10.68;2.67;;;10.10;99.90;;;;;;4983004;28;20124;-84
2023/05/02 07:42:00;;;;;;;10.02;2.38;;;10.10;99.90;;;;;;5003098;28;20048;-85
2023/05/02 07:44:25;;;;;;;9.07;2.15;;;10.20;99.90;;;;;;5019835;28;20034;-85
2023/05/02 07:46:51;;;;;;;10.38;2.45;;;10.20;99.90;;;;;;5015475;28;20619;-84
2023/05/02 07:49:18;;;;;;;14.32;2.20;;;10.20;99.90;;;;;;5020060;28;20040;-83
2023/05/02 07:51:44;;;;;;;8.63;2.80;;;10.20;99.90;;;;;;4999844;28;20052;-84
2023/05/02 07:54:20;;;;;;;8.90;2.30;;;10.20;99.90;;;;;;5015065;28;20041;-85
2023/05/02 07:56:46;;;;;;;7.30;2.60;;;10.30;99.90;;;;;;4997909;28;20053;-84
2023/05/02 07:59:12;;;;;;;11.85;2.80;;;10.30;99.90;;;;;;5001630;28;20041;-84
2023/05/02 08:01:40;;;;;;;6.20;2.72;;;10.30;99.90;;;;;;5014625;28;20037;-84
2023/05/02 08:04:06;;;;;;;9.77;2.90;;;10.20;99.90;;;;;;5015002;28;20038;-86
2023/05/02 08:06:32;;;;;;;7.65;2.17;;;10.20;99.90;;;;;;4997352;28;20100;-84
2023/05/02 08:08:58;;;;;;;9.57;2.63;;;10.20;99.90;;;;;;4996952;28;21536;-83
2023/05/02 08:11:24;;;;;;;13.07;2.22;;;10.20;99.90;;;;;;5015309;28;20060;-84
2023/05/02 08:13:50;;;;;;;9.23;2.85;;;10.30;99.90;;;;;;5017060;28;20073;-84
2023/05/02 08:16:17;;;;;;;7.88;2.60;;;10.30;99.90;;;;;;4999188;28;20042;-84
2023/05/02 08:18:42;;;;;;;7.05;2.80;;;10.30;99.90;;;;;;5026474;28;20515;-83
2023/05/02 08:21:09;;;;;;;8.60;2.33;;;10.30;99.90;;;;;;4998425;28;20049;-84
2023/05/02 08:23:34;;;;;;;8.73;2.47;;;10.30;99.90;;;;;;4989927;28;20103;-84
2023/05/02 08:26:00;;;;;;;8.05;2.53;;;10.40;99.90;;;;;;4996990;28;20041;-84
2023/05/02 08:28:26;;;;;;;5.43;1.70;;;10.30;99.90;;;;;;4990379;28;20048;-83
2023/05/02 08:30:51;;;;;;;5.97;1.63;;;10.40;99.90;;;;;;5013981;28;20076;-83
2023/05/02 08:33:17;;;;;;;6.05;1.88;;;10.40;99.90;;;;;;5015900;28;20151;-84
2023/05/02 08:35:43;;;;;;;6.57;2.00;;;10.50;99.90;;;;;;5014785;28;20034;-85
2023/05/02 08:38:09;;;;;;;7.32;2.05;;;10.60;99.90;;;;;;5014625;28;20499;-84
2023/05/02 08:40:36;;;;;;;6.38;1.90;;;10.70;99.90;;;;;;5014255;28;20045;-85
2023/05/02 08:43:03;;;;;;;4.72;1.73;;;10.90;99.90;;;;;;5023126;28;20033;-82
2023/05/02 08:45:40;;;;;;;6.47;1.83;;;11.00;99.90;;;;;;5025824;28;20067;-82
2023/05/02 08:48:12;;;;;;;6.30;1.83;;;11.00;99.90;;;;;;5014740;28;20389;-84
2023/05/02 08:50:40;;;;;;;6.60;1.65;;;11.00;99.90;;;;;;5001388;28;20049;-85
2023/05/02 08:53:07;;;;;;;6.22;1.50;;;10.90;99.90;;;;;;4998749;28;20053;-84
2023/05/02 08:55:35;;;;;;;6.38;1.80;;;10.80;99.90;;;;;;5015389;28;20431;-83
2023/05/02 08:58:03;;;;;;;5.45;1.20;;;10.80;99.90;;;;;;4995627;28;20049;-84
2023/05/02 09:00:29;;;;;;;5.10;1.50;;;10.80;99.90;;;;;;5012342;28;20510;-83
2023/05/02 09:03:06;;;;;;;4.47;1.20;;;10.80;99.90;;;;;;4990111;28;20038;-84
2023/05/02 09:05:39;;;;;;;6.57;1.45;;;10.90;99.90;;;;;;4996650;28;20067;-84
2023/05/02 09:08:05;;;;;;;7.80;1.40;;;10.90;99.90;;;;;;5022647;28;20033;-84
2023/05/02 09:10:35;;;;;;;6.18;1.27;;;11.00;99.90;;;;;;5014207;28;20042;-85
2023/05/02 09:13:29;;;;;;;2.13;1.02;;;11.00;99.90;;;;;;4995852;28;20504;-84
2023/05/02 09:16:08;;;;;;;5.38;1.08;;;11.10;99.90;;;;;;5014320;28;20042;-83
2023/05/02 09:18:55;;;;;;;4.32;1.50;;;11.10;99.90;;;;;;5002223;28;20050;-85
2023/05/02 09:21:26;;;;;;;4.53;1.00;;;11.00;99.90;;;;;;5013021;28;20050;-85
2023/05/02 09:23:57;;;;;;;4.05;1.10;;;11.10;99.90;;;;;;4996127;28;20036;-85
2023/05/02 09:26:32;;;;;;;4.28;1.17;;;11.00;99.90;;;;;;5007329;28;20038;-85
2023/05/02 09:29:03;;;;;;;6.25;1.33;;;11.10;99.90;;;;;;5014191;28;20049;-86
2023/05/02 09:31:36;;;;;;;5.15;1.10;;;11.20;99.90;;;;;;5000330;28;20061;-85
2023/05/02 09:34:22;;;;;;;5.43;1.10;;;11.30;99.90;;;;;;5000733;28;20041;-86
2023/05/02 09:36:52;;;;;;;3.20;0.80;;;11.40;99.90;;;;;;5005684;28;20081;-85
2023/05/02 09:39:21;;;;;;;3.70;0.90;;;11.40;99.90;;;;;;5011844;28;20485;-85
2023/05/02 09:41:48;;;;;;;7.88;1.10;;;11.40;99.90;;;;;;5002186;28;20038;-85
2023/05/02 09:44:19;;;;;;;3.72;1.17;;;11.40;99.90;;;;;;5000844;28;20469;-85
2023/05/02 09:46:47;;;;;;;3.53;0.95;;;11.40;99.90;;;;;;4995644;28;20053;-85
2023/05/02 09:49:19;;;;;;;4.88;1.20;;;11.40;99.90;;;;;;5013933;28;20030;-84
2023/05/02 09:51:48;;;;;;;7.60;1.10;;;11.40;99.90;;;;;;5015929;28;20038;-84
2023/05/02 09:54:35;;;;;;;4.57;1.25;;;11.40;99.90;;;;;;5012997;28;20037;-85
2023/05/02 09:57:00;;;;;;;7.85;1.40;;;11.30;99.90;;;;;;5015665;28;20045;-85
2023/05/02 09:59:26;;;;;;;4.75;1.00;;;11.30;99.90;;;;;;4996518;28;20095;-84
2023/05/02 10:02:00;;;;;;;6.15;1.25;;;11.30;99.90;;;;;;5016195;28;20452;-84
2023/05/02 10:04:27;;;;;;;2.88;1.00;;;11.30;99.90;;;;;;4999468;28;20446;-85
2023/05/02 10:06:54;;;;;;;3.10;0.77;;;11.30;99.90;;;;;;5017883;28;20051;-85
2023/05/02 10:09:20;;;;;;;4.95;0.93;;;11.30;99.90;;;;;;4994875;28;20048;-84
2023/05/02 10:11:49;;;;;;;3.40;0.90;;;11.30;99.90;;;;;;5001042;28;20468;-85
2023/05/02 10:14:18;;;;;;;5.03;0.95;;;11.40;99.90;;;;;;4978017;28;20050;-83
2023/05/02 10:17:15;;;;;;;2.70;0.90;;;11.50;99.90;;;;;;4999708;28;20452;-85
2023/05/02 10:20:05;;;;;;;3.03;0.88;;;11.50;99.90;;;;;;4995107;28;20087;-85
2023/05/02 10:22:35;;;;;;;4.78;1.10;;;11.50;99.90;;;;;;4990883;28;20046;-85
2023/05/02 10:25:02;;;;;;;5.70;0.85;;;11.70;99.90;;;;;;4999466;28;20045;-85
2023/05/02 10:27:31;;;;;;;4.13;0.90;;;11.80;99.90;;;;;;5016483;28;20052;-84
2023/05/02 10:29:58;;;;;;;4.07;1.10;;;11.80;99.90;;;;;;5006026;28;20504;-83
2023/05/02 10:32:27;;;;;;;2.92;0.93;;;11.80;99.90;;;;;;5012422;28;20033;-86
2023/05/02 10:34:55;;;;;;;6.45;1.30;;;11.80;99.90;;;;;;5000799;28;20045;-86
2023/05/02 10:37:24;;;;;;;4.13;0.90;;;11.80;99.90;;;;;;4994856;28;20050;-85
2023/05/02 10:39:50;;;;;;;4.22;1.00;;;11.70;99.90;;;;;;5012136;28;20053;-84
2023/05/02 10:42:17;;;;;;;5.22;1.30;;;11.60;99.90;;;;;;4995954;28;20612;-85
2023/05/02 10:44:43;;;;;;;5.68;0.80;;;11.60;99.90;;;;;;4995594;28;20037;-85
2023/05/02 10:47:22;;;;;;;3.13;0.90;;;11.60;99.90;;;;;;5011712;28;20045;-84
2023/05/02 10:50:00;;;;;;;3.55;1.10;;;11.70;99.90;;;;;;5000866;28;20121;-84
2023/05/02 10:52:32;;;;;;;2.38;0.88;;;11.70;99.90;;;;;;5015340;28;20045;-85
2023/05/02 10:55:18;;;;;;;3.40;0.88;;;11.80;99.90;;;;;;5017073;28;20042;-85
2023/05/02 10:57:59;;;;;;;3.20;0.90;;;11.90;99.90;;;;;;4993708;28;20104;-84
2023/05/02 11:00:35;;;;;;;1.98;0.80;;;12.00;99.90;;;;;;4994658;28;20045;-84
2023/05/02 11:03:01;;;;;;;4.88;0.82;;;12.10;99.90;;;;;;4990967;28;20119;-84
2023/05/02 11:05:27;;;;;;;4.30;0.90;;;12.10;99.90;;;;;;5011731;28;20436;-84
2023/05/02 11:08:25;;;;;;;7.32;1.30;;;12.10;99.90;;;;;;5011450;28;20173;-84
2023/05/02 11:10:51;;;;;;;8.80;1.30;;;12.20;99.90;;;;;;4981012;28;20420;-84
2023/05/02 11:13:49;;;;;;;3.15;0.90;;;12.30;99.90;;;;;;4993184;28;20130;-85
2023/05/02 11:16:16;;;;;;;3.88;1.08;;;12.20;99.90;;;;;;5016721;28;20057;-85
2023/05/02 11:19:08;;;;;;;2.78;0.80;;;12.20;99.90;;;;;;5017377;28;20053;-84
2023/05/02 11:21:37;;;;;;;7.18;1.05;;;12.10;99.90;;;;;;5013034;28;20076;-85
2023/05/02 11:24:41;;;;;;;6.82;1.40;;;12.10;99.90;;;;;;4993558;28;20052;-84
2023/05/02 11:27:32;;;;;;;4.18;1.20;;;12.00;99.90;;;;;;5014805;28;20049;-84
2023/05/02 11:30:08;;;;;;;7.25;1.20;;;11.90;99.90;;;;;;4987812;28;20132;-85
2023/05/02 11:32:44;;;;;;;6.35;1.30;;;12.00;99.90;;;;;;4997909;28;20065;-85
2023/05/02 11:35:23;;;;;;;3.47;1.00;;;12.10;99.90;;;;;;5019048;28;20045;-83
2023/05/02 11:37:56;;;;;;;2.72;1.17;;;12.00;99.90;;;;;;5002155;28;20038;-84
2023/05/02 11:40:23;;;;;;;2.65;1.10;;;12.00;99.90;;;;;;4998002;28;20077;-83
2023/05/02 11:42:48;;;;;;;3.85;1.00;;;12.10;99.90;;;;;;5021289;28;20045;-84
2023/05/02 11:45:14;;;;;;;6.18;1.05;;;12.20;99.90;;;;;;5003672;28;20052;-85
2023/05/02 11:47:41;;;;;;;3.53;0.90;;;12.20;99.90;;;;;;5022221;28;20045;-84
2023/05/02 11:50:10;;;;;;;3.28;1.02;;;12.20;99.90;;;;;;4993586;28;20040;-84
2023/05/02 11:52:43;;;;;;;3.20;0.90;;;12.30;99.90;;;;;;4997912;28;20145;-85
2023/05/02 11:55:14;;;;;;;4.00;1.13;;;12.40;99.90;;;;;;5017356;28;20041;-86
2023/05/02 11:57:41;;;;;;;2.60;0.82;;;12.60;99.90;;;;;;5018713;28;20046;-85
2023/05/02 12:00:09;;;;;;;4.05;1.23;;;12.60;99.90;;;;;;4999723;28;20051;-86
2023/05/02 12:02:37;;;;;;;5.00;0.85;;;12.50;99.90;;;;;;5021738;28;20056;-85
2023/05/02 12:05:06;;;;;;;6.95;1.10;;;12.40;99.90;;;;;;5016830;28;20093;-84
2023/05/02 12:07:41;;;;;;;3.75;1.10;;;12.30;99.90;;;;;;4987335;28;20453;-84
2023/05/02 12:10:08;;;;;;;6.68;0.88;;;12.50;99.90;;;;;;5002237;28;20030;-84
2023/05/02 12:12:35;;;;;;;3.75;0.90;;;12.20;99.90;;;;;;5008524;28;20075;-84
2023/05/02 12:15:09;;;;;;;2.63;0.80;;;12.20;99.90;;;;;;4998705;28;20493;-86
2023/05/02 12:17:40;;;;;;;4.22;1.05;;;12.20;99.90;;;;;;5015165;28;20065;-85
2023/05/02 12:20:08;;;;;;;2.17;0.88;;;12.20;99.90;;;;;;5014164;28;20057;-84
2023/05/02 12:22:34;;;;;;;3.13;0.85;;;12.20;99.90;;;;;;5016582;28;20072;-85
2023/05/02 12:25:02;;;;;;;2.75;0.88;;;12.30;99.90;;;;;;5010939;28;20117;-85
2023/05/02 12:27:28;;;;;;;3.45;0.88;;;12.30;99.90;;;;;;5015660;28;20053;-90
2023/05/02 12:29:56;;;;;;;3.20;1.10;;;12.30;99.90;;;;;;5014154;28;20100;-86
2023/05/02 12:32:30;;;;;;;4.22;1.00;;;12.30;99.90;;;;;;5013929;28;20117;-86
2023/05/02 12:34:56;;;;;;;4.13;0.70;;;12.30;99.90;;;;;;5013747;28;20073;-86
2023/05/02 12:37:26;;;;;;;3.67;0.80;;;12.30;99.90;;;;;;4996447;28;20054;-85
2023/05/02 12:39:55;;;;;;;3.60;0.60;;;12.30;99.90;;;;;;5005298;28;20102;-85
2023/05/02 12:42:23;;;;;;;2.65;0.60;;;12.30;99.90;;;;;;5017894;28;20500;-85
2023/05/02 12:44:52;;;;;;;2.53;0.40;;;12.30;99.90;;;;;;5020123;28;20026;-85
2023/05/02 12:47:20;;;;;;;1.77;0.55;;;12.30;99.90;;;;;;5016691;28;20050;-85
2023/05/02 12:49:56;;;;;;;2.95;0.70;;;12.50;99.90;;;;;;4995884;28;20040;-85
2023/05/02 12:52:46;;;;;;;4.10;0.60;;;12.70;99.90;;;;;;4988246;28;20033;-85
2023/05/02 12:55:19;;;;;;;3.00;0.50;;;12.80;99.90;;;;;;5003798;28;20522;-85
2023/05/02 12:57:44;;;;;;;0.77;0.40;;;13.10;99.90;;;;;;4999123;28;20072;-83